Time;durP1;ratioP1;P1;durP2;ratioP2;P2;SDS_P1;SDS_P2;PMS_P1;PMS_P2;Temp;Humidity;BMP_temperature;BMP_pressure;BME280_temperature;BME280_humidity;BME280_pressure;Samples;Min_cycle;Max_cycle;Signal;HPM_P1;HPM_P2
2022/11/24 00:00:36;;;;;;;;;;;16.60;46.70;;;;;;8333315;28;19929;-45
2022/11/24 00:04:37;;;;;;;;;;;16.60;46.70;;;;;;8333753;28;19960;-45
2022/11/24 00:08:38;;;;;;;;;;;16.60;46.80;;;;;;8333606;28;19944;-46
2022/11/24 00:12:39;;;;;;;;;;;16.60;46.70;;;;;;8333311;28;19918;-45
2022/11/24 00:16:39;;;;;;;;;;;16.60;46.80;;;;;;8333562;28;20397;-45
2022/11/24 00:20:40;;;;;;;;;;;16.60;46.80;;;;;;8333029;28;20393;-45
2022/11/24 00:24:40;;;;;;;;;;;16.60;46.80;;;;;;8332822;28;20320;-45
2022/11/24 00:28:41;;;;;;;;;;;16.60;46.80;;;;;;8333352;28;20022;-44
2022/11/24 00:32:42;;;;;;;;;;;16.60;46.80;;;;;;8333240;28;19927;-45
2022/11/24 00:36:42;;;;;;;;;;;16.50;46.80;;;;;;8332209;28;19917;-45
2022/11/24 00:40:43;;;;;;;;;;;16.60;46.80;;;;;;8332473;28;20390;-44
2022/11/24 00:44:43;;;;;;;;;;;16.60;46.90;;;;;;8332936;28;20388;-46
2022/11/24 00:48:44;;;;;;;;;;;16.60;46.90;;;;;;8332280;28;19921;-44
2022/11/24 00:52:44;;;;;;;;;;;16.60;46.90;;;;;;8332457;28;19924;-45
2022/11/24 00:56:46;;;;;;;;;;;16.60;46.90;;;;;;8331124;28;19917;-45
2022/11/24 01:00:46;;;;;;;;;;;16.60;46.90;;;;;;8331544;28;20016;-45
2022/11/24 01:04:47;;;;;;;;;;;16.60;46.90;;;;;;8331770;28;19917;-45
2022/11/24 01:08:47;;;;;;;;;;;16.60;46.80;;;;;;8331891;28;19921;-46
2022/11/24 01:12:49;;;;;;;;;;;16.60;46.80;;;;;;8331242;28;19990;-45
2022/11/24 01:16:49;;;;;;;;;;;16.70;46.80;;;;;;8331465;28;20004;-45
2022/11/24 01:20:50;;;;;;;;;;;16.70;46.90;;;;;;8331311;28;19925;-45
2022/11/24 01:24:50;;;;;;;;;;;16.70;46.80;;;;;;8330872;28;20361;-46
2022/11/24 01:28:52;;;;;;;;;;;16.70;46.90;;;;;;8331313;28;20003;-45
2022/11/24 01:32:52;;;;;;;;;;;16.70;46.90;;;;;;8331206;28;19917;-46
2022/11/24 01:36:53;;;;;;;;;;;16.70;46.90;;;;;;8330432;28;19917;-45
2022/11/24 01:41:13;;;;;;;;;;;16.70;46.90;;;;;;8330899;28;19932;-45
2022/11/24 01:45:40;;;;;;;;;;;16.70;46.90;;;;;;8330214;28;20417;-45
2022/11/24 01:49:44;;;;;;;;;;;16.70;46.90;;;;;;8327388;28;20011;-45
2022/11/24 01:53:48;;;;;;;;;;;16.70;46.90;;;;;;8330898;28;19920;-46
2022/11/24 01:58:06;;;;;;;;;;;16.60;46.80;;;;;;8329902;28;19968;-45
2022/11/24 02:02:07;;;;;;;;;;;16.60;46.80;;;;;;8330313;28;19936;-46
2022/11/24 02:06:10;;;;;;;;;;;16.60;46.80;;;;;;8329465;28;20004;-46
2022/11/24 02:10:12;;;;;;;;;;;16.60;46.80;;;;;;8329735;28;19921;-46
2022/11/24 02:14:13;;;;;;;;;;;16.60;46.80;;;;;;8330304;28;19913;-46
2022/11/24 02:18:14;;;;;;;;;;;16.60;46.80;;;;;;8330428;28;20012;-46
2022/11/24 02:22:14;;;;;;;;;;;16.60;46.80;;;;;;8329468;28;19947;-46
2022/11/24 02:26:30;;;;;;;;;;;16.60;46.80;;;;;;8329961;28;19924;-47
2022/11/24 02:30:30;;;;;;;;;;;16.60;46.90;;;;;;8329516;28;19914;-46
2022/11/24 02:34:31;;;;;;;;;;;16.60;46.80;;;;;;8330155;28;19913;-45
2022/11/24 02:38:32;;;;;;;;;;;16.60;46.90;;;;;;8330085;28;19929;-45
2022/11/24 02:42:34;;;;;;;;;;;16.50;46.90;;;;;;8329344;28;20390;-45
2022/11/24 02:46:35;;;;;;;;;;;16.60;46.90;;;;;;8329755;28;19917;-46
2022/11/24 02:50:35;;;;;;;;;;;16.50;46.80;;;;;;8329685;28;19923;-46
2022/11/24 02:54:36;;;;;;;;;;;16.50;46.90;;;;;;8329058;28;19951;-46
2022/11/24 02:58:36;;;;;;;;;;;16.50;46.90;;;;;;8329981;28;19932;-47
2022/11/24 03:02:37;;;;;;;;;;;16.60;47.00;;;;;;8329573;28;19924;-46
2022/11/24 03:06:38;;;;;;;;;;;16.60;47.00;;;;;;8328812;28;20363;-46
2022/11/24 03:10:38;;;;;;;;;;;16.60;47.00;;;;;;8329518;28;19971;-46
2022/11/24 03:14:39;;;;;;;;;;;16.60;47.00;;;;;;8329500;28;19913;-46
2022/11/24 03:18:39;;;;;;;;;;;16.60;46.90;;;;;;8330898;28;20007;-45
2022/11/24 03:22:40;;;;;;;;;;;16.60;47.00;;;;;;8335290;28;19921;-44
2022/11/24 03:26:41;;;;;;;;;;;16.60;46.90;;;;;;8335058;28;19917;-45
2022/11/24 03:30:41;;;;;;;;;;;16.60;46.90;;;;;;8334407;28;19921;-45
2022/11/24 03:34:41;;;;;;;;;;;16.70;47.00;;;;;;8334944;28;19960;-46
2022/11/24 03:38:42;;;;;;;;;;;16.70;47.00;;;;;;8334607;28;19925;-45
2022/11/24 03:42:42;;;;;;;;;;;16.70;47.00;;;;;;8334003;28;19972;-45
2022/11/24 03:46:43;;;;;;;;;;;16.60;46.90;;;;;;8334296;28;19924;-45
2022/11/24 03:50:50;;;;;;;;;;;16.70;47.60;;;;;;8334286;28;19917;-45
2022/11/24 03:54:52;;;;;;;;;;;16.60;47.00;;;;;;8333788;28;19917;-46
2022/11/24 03:58:52;;;;;;;;;;;16.60;47.00;;;;;;8333988;28;20350;-46
2022/11/24 04:02:53;;;;;;;;;;;16.70;47.00;;;;;;8333690;28;19917;-45
2022/11/24 04:06:53;;;;;;;;;;;16.60;47.00;;;;;;8332986;28;20299;-46
2022/11/24 04:10:55;;;;;;;;;;;16.60;47.00;;;;;;8332762;28;22498;-46
2022/11/24 04:14:56;;;;;;;;;;;16.60;47.00;;;;;;8332271;28;19914;-45
2022/11/24 04:18:56;;;;;;;;;;;16.60;47.00;;;;;;8332884;28;20344;-46
2022/11/24 04:22:57;;;;;;;;;;;16.60;47.00;;;;;;8333432;28;19917;-45
2022/11/24 04:26:57;;;;;;;;;;;16.60;47.00;;;;;;8332989;28;19917;-45
2022/11/24 04:31:04;;;;;;;;;;;16.60;47.00;;;;;;8332424;28;19917;-45
2022/11/24 04:35:05;;;;;;;;;;;16.60;47.00;;;;;;8333045;28;20370;-46
2022/11/24 04:39:05;;;;;;;;;;;16.60;47.00;;;;;;8332539;28;19932;-46
2022/11/24 04:43:06;;;;;;;;;;;16.50;47.00;;;;;;8332020;28;19921;-46
2022/11/24 04:47:06;;;;;;;;;;;16.60;47.10;;;;;;8332385;28;19918;-45
2022/11/24 04:51:06;;;;;;;;;;;16.60;47.10;;;;;;8332077;28;19917;-46
2022/11/24 04:55:07;;;;;;;;;;;16.60;47.10;;;;;;8331849;28;20281;-46
2022/11/24 04:59:11;;;;;;;;;;;16.60;47.10;;;;;;8332201;28;20016;-46
2022/11/24 05:03:11;;;;;;;;;;;16.60;47.10;;;;;;8331009;28;20278;-46
2022/11/24 05:07:12;;;;;;;;;;;16.60;47.10;;;;;;8331189;28;20016;-45
2022/11/24 05:11:13;;;;;;;;;;;16.50;47.00;;;;;;8331839;28;19917;-48
2022/11/24 05:15:13;;;;;;;;;;;16.50;47.00;;;;;;8331877;28;20039;-47
2022/11/24 05:19:14;;;;;;;;;;;16.50;47.10;;;;;;8330894;28;19925;-45
2022/11/24 05:23:14;;;;;;;;;;;16.60;47.10;;;;;;8331552;28;19924;-46
2022/11/24 05:27:15;;;;;;;;;;;16.60;47.10;;;;;;8331089;28;20028;-45
2022/11/24 05:31:15;;;;;;;;;;;16.60;47.10;;;;;;8330635;28;19917;-46
2022/11/24 05:35:17;;;;;;;;;;;16.50;47.10;;;;;;8331218;28;19949;-45
2022/11/24 05:39:18;;;;;;;;;;;16.50;47.10;;;;;;8330883;28;19932;-45
2022/11/24 05:43:18;;;;;;;;;;;16.50;47.10;;;;;;8329938;28;19917;-46
2022/11/24 05:47:19;;;;;;;;;;;16.60;47.10;;;;;;8330688;28;20358;-47
2022/11/24 05:51:20;;;;;;;;;;;16.60;47.10;;;;;;8330756;28;20365;-45
2022/11/24 05:55:20;;;;;;;;;;;16.50;47.10;;;;;;8330278;28;19914;-45
2022/11/24 05:59:21;;;;;;;;;;;16.50;47.10;;;;;;8330224;28;19925;-46
2022/11/24 06:03:21;;;;;;;;;;;16.60;47.10;;;;;;8330440;28;20344;-46
2022/11/24 06:07:22;;;;;;;;;;;16.60;47.10;;;;;;8329633;28;19975;-46
2022/11/24 06:11:22;;;;;;;;;;;16.50;47.10;;;;;;8330447;28;20342;-46
2022/11/24 06:15:22;;;;;;;;;;;16.50;47.10;;;;;;8330210;28;19913;-45
2022/11/24 06:19:23;;;;;;;;;;;16.50;47.10;;;;;;8329608;28;20016;-46
2022/11/24 06:23:23;;;;;;;;;;;16.60;47.20;;;;;;8330270;28;19918;-45
2022/11/24 06:27:24;;;;;;;;;;;16.50;47.10;;;;;;8329878;28;19917;-46
2022/11/24 06:31:25;;;;;;;;;;;16.50;47.10;;;;;;8329602;28;20024;-46
2022/11/24 06:35:25;;;;;;;;;;;16.50;47.10;;;;;;8330055;28;19913;-47
2022/11/24 06:39:25;;;;;;;;;;;16.50;47.10;;;;;;8329287;28;20021;-45
2022/11/24 06:43:26;;;;;;;;;;;16.50;47.10;;;;;;8329581;28;19967;-45
2022/11/24 06:47:27;;;;;;;;;;;16.50;47.10;;;;;;8329722;28;19979;-46
2022/11/24 06:51:27;;;;;;;;;;;16.60;47.10;;;;;;8329187;28;19959;-45
2022/11/24 06:55:28;;;;;;;;;;;16.50;47.10;;;;;;8335342;28;19913;-47
2022/11/24 06:59:28;;;;;;;;;;;16.50;47.10;;;;;;8335733;28;19936;-45
2022/11/24 07:03:29;;;;;;;;;;;16.50;47.10;;;;;;8335227;28;19952;-46
2022/11/24 07:07:29;;;;;;;;;;;16.50;47.10;;;;;;8335284;28;19982;-45
2022/11/24 07:11:30;;;;;;;;;;;16.50;47.10;;;;;;8335572;28;20374;-45
2022/11/24 07:15:30;;;;;;;;;;;16.50;47.10;;;;;;8335173;28;19920;-45
2022/11/24 07:19:31;;;;;;;;;;;16.50;47.10;;;;;;8335211;28;19925;-45
2022/11/24 07:23:31;;;;;;;;;;;16.50;47.10;;;;;;8334985;28;19919;-48
2022/11/24 07:27:32;;;;;;;;;;;16.50;47.10;;;;;;8334584;28;20405;-46
2022/11/24 07:31:33;;;;;;;;;;;16.50;47.10;;;;;;8335234;28;19924;-48
2022/11/24 07:35:33;;;;;;;;;;;16.50;47.10;;;;;;8334964;28;20374;-48
2022/11/24 07:39:33;;;;;;;;;;;16.60;47.20;;;;;;8334025;28;19925;-49
2022/11/24 07:43:34;;;;;;;;;;;16.50;47.10;;;;;;8334368;28;19924;-45
2022/11/24 07:47:39;;;;;;;;;;;16.50;47.10;;;;;;8334398;28;20381;-45
2022/11/24 07:51:39;;;;;;;;;;;16.50;47.10;;;;;;8333820;28;19945;-46
2022/11/24 07:55:40;;;;;;;;;;;16.60;47.10;;;;;;8334107;28;19914;-46
2022/11/24 07:59:40;;;;;;;;;;;16.50;47.10;;;;;;8333711;28;20391;-46
2022/11/24 08:03:41;;;;;;;;;;;16.50;47.20;;;;;;8332831;28;19917;-45
2022/11/24 08:07:42;;;;;;;;;;;16.50;47.10;;;;;;8333371;28;20306;-46
2022/11/24 08:11:42;;;;;;;;;;;16.50;47.20;;;;;;8332654;28;19913;-45
2022/11/24 08:15:43;;;;;;;;;;;16.50;47.10;;;;;;8333021;28;19921;-45
2022/11/24 08:19:44;;;;;;;;;;;16.50;47.70;;;;;;8333413;28;19929;-45
2022/11/24 08:23:44;;;;;;;;;;;16.50;47.20;;;;;;8333140;28;19917;-45
2022/11/24 08:27:45;;;;;;;;;;;16.50;47.20;;;;;;8332535;28;19917;-48
2022/11/24 08:31:45;;;;;;;;;;;16.50;47.10;;;;;;8331738;28;19949;-45
2022/11/24 08:35:46;;;;;;;;;;;16.50;47.10;;;;;;8332575;28;19925;-48
2022/11/24 08:39:46;;;;;;;;;;;16.50;47.20;;;;;;8332037;28;20270;-45
2022/11/24 08:43:47;;;;;;;;;;;16.60;47.20;;;;;;8332631;28;20019;-48
2022/11/24 08:47:54;;;;;;;;;;;16.60;47.20;;;;;;8332373;28;19924;-45
2022/11/24 08:51:55;;;;;;;;;;;16.60;47.10;;;;;;8332098;28;19919;-45
2022/11/24 08:55:59;;;;;;;;;;;16.70;47.10;;;;;;8332002;28;19924;-47
2022/11/24 09:00:00;;;;;;;;;;;16.70;47.10;;;;;;8331989;28;19931;-45
2022/11/24 09:04:00;;;;;;;;;;;16.70;47.10;;;;;;8331758;28;19925;-46
2022/11/24 09:08:01;;;;;;;;;;;16.70;47.20;;;;;;8331691;28;20373;-46
2022/11/24 09:12:01;;;;;;;;;;;16.70;47.20;;;;;;8332059;28;20440;-46
2022/11/24 09:16:03;;;;;;;;;;;16.70;47.20;;;;;;8330136;28;19921;-45
2022/11/24 09:20:04;;;;;;;;;;;16.70;47.20;;;;;;8331577;28;20011;-44
2022/11/24 09:24:06;;;;;;;;;;;16.70;47.20;;;;;;8331129;28;19918;-47
2022/11/24 09:28:06;;;;;;;;;;;16.70;47.10;;;;;;8330524;28;19924;-45
2022/11/24 09:32:06;;;;;;;;;;;16.80;47.10;;;;;;8331266;28;20340;-45
2022/11/24 09:36:07;;;;;;;;;;;16.80;47.10;;;;;;8330938;28;20016;-46
2022/11/24 09:40:10;;;;;;;;;;;16.80;47.10;;;;;;8330289;28;19936;-46
2022/11/24 09:44:30;;;;;;;;;;;16.80;47.10;;;;;;8330907;28;19925;-47
2022/11/24 09:48:51;;;;;;;;;;;16.80;47.10;;;;;;8330144;28;19963;-45
2022/11/24 09:52:59;;;;;;;;;;;16.80;47.20;;;;;;8330258;28;19921;-45
2022/11/24 09:57:03;;;;;;;;;;;16.80;47.20;;;;;;8330583;28;20000;-45
2022/11/24 10:01:11;;;;;;;;;;;16.70;47.10;;;;;;8330036;28;19925;-48
2022/11/24 10:05:12;;;;;;;;;;;16.80;47.20;;;;;;8330411;28;19940;-47
2022/11/24 10:09:31;;;;;;;;;;;16.80;47.20;;;;;;8329991;28;19932;-46
2022/11/24 10:13:40;;;;;;;;;;;16.70;47.20;;;;;;8329799;28;20020;-48
2022/11/24 10:17:46;;;;;;;;;;;16.70;47.20;;;;;;8330085;28;19944;-45
2022/11/24 10:21:58;;;;;;;;;;;16.80;47.20;;;;;;8329836;28;20282;-45
2022/11/24 10:25:59;;;;;;;;;;;16.80;47.30;;;;;;8330042;28;20290;-45
2022/11/24 10:30:00;;;;;;;;;;;16.80;47.20;;;;;;8336257;28;20047;-45
2022/11/24 10:34:03;;;;;;;;;;;16.80;47.30;;;;;;8336170;28;19917;-48
2022/11/24 10:38:15;;;;;;;;;;;16.70;47.20;;;;;;8336585;28;20362;-47
2022/11/24 10:42:27;;;;;;;;;;;16.80;47.30;;;;;;8336600;28;19913;-45
2022/11/24 10:46:28;;;;;;;;;;;16.70;47.30;;;;;;8335656;28;19968;-45
2022/11/24 10:50:31;;;;;;;;;;;16.70;47.30;;;;;;8335818;28;19917;-45
2022/11/24 10:54:34;;;;;;;;;;;16.70;47.30;;;;;;8335087;28;19924;-45
2022/11/24 10:58:36;;;;;;;;;;;16.70;47.30;;;;;;8335582;28;19926;-44
2022/11/24 11:02:38;;;;;;;;;;;16.70;47.30;;;;;;8335810;28;20003;-45
2022/11/24 11:06:39;;;;;;;;;;;16.70;47.30;;;;;;8321335;28;19925;-46
2022/11/24 11:10:40;;;;;;;;;;;16.70;47.30;;;;;;8325771;28;20298;-45
2022/11/24 11:14:41;;;;;;;;;;;16.80;47.30;;;;;;8335525;28;19924;-45
2022/11/24 11:18:45;;;;;;;;;;;16.80;47.30;;;;;;8334665;28;20305;-46
2022/11/24 11:22:47;;;;;;;;;;;16.80;47.30;;;;;;8335296;28;19913;-46
2022/11/24 11:26:57;;;;;;;;;;;16.80;47.30;;;;;;8334836;28;19966;-44
2022/11/24 11:31:04;;;;;;;;;;;16.80;47.30;;;;;;8334504;28;19943;-45
2022/11/24 11:35:04;;;;;;;;;;;16.80;47.30;;;;;;8334955;28;19968;-48
2022/11/24 11:39:05;;;;;;;;;;;16.80;47.30;;;;;;8333666;28;19929;-45
2022/11/24 11:43:12;;;;;;;;;;;16.80;47.30;;;;;;8334211;28;19979;-45
2022/11/24 11:47:18;;;;;;;;;;;16.80;47.30;;;;;;8334624;28;19975;-44
2022/11/24 11:51:31;;;;;;;;;;;16.80;47.30;;;;;;8334329;28;19970;-48
2022/11/24 11:55:48;;;;;;;;;;;16.80;47.30;;;;;;8334104;28;20267;-46
2022/11/24 12:00:11;;;;;;;;;;;16.80;47.30;;;;;;8333902;28;19925;-46
2022/11/24 12:04:30;;;;;;;;;;;16.80;47.30;;;;;;8333271;28;19925;-46
2022/11/24 12:08:33;;;;;;;;;;;16.80;47.30;;;;;;8333678;28;20396;-45
2022/11/24 12:12:40;;;;;;;;;;;16.80;47.30;;;;;;8333150;28;20294;-46
2022/11/24 12:16:50;;;;;;;;;;;16.80;47.30;;;;;;8333248;28;19925;-45
2022/11/24 12:21:00;;;;;;;;;;;16.80;47.30;;;;;;8333266;28;20370;-44
2022/11/24 12:25:14;;;;;;;;;;;16.80;47.20;;;;;;8332633;28;20507;-45
2022/11/24 12:29:30;;;;;;;;;;;16.80;47.30;;;;;;8332982;28;19920;-46
2022/11/24 12:33:37;;;;;;;;;;;16.80;47.30;;;;;;8332514;28;19923;-46
2022/11/24 12:37:54;;;;;;;;;;;16.80;47.30;;;;;;8333264;28;19983;-48
2022/11/24 12:42:07;;;;;;;;;;;16.80;47.30;;;;;;8332705;28;19964;-46
2022/11/24 12:46:16;;;;;;;;;;;16.80;47.30;;;;;;8332256;28;19917;-45
2022/11/24 12:50:18;;;;;;;;;;;16.80;47.30;;;;;;8331551;28;19917;-48
2022/11/24 12:54:19;;;;;;;;;;;16.80;47.30;;;;;;8332234;28;19923;-47
2022/11/24 12:58:41;;;;;;;;;;;16.80;47.30;;;;;;8331783;28;19928;-44
2022/11/24 13:03:04;;;;;;;;;;;16.80;47.30;;;;;;8332454;28;20354;-44
2022/11/24 13:07:09;;;;;;;;;;;16.80;47.30;;;;;;8331184;28;19971;-48
2022/11/24 13:11:36;;;;;;;;;;;16.80;47.30;;;;;;8331718;28;19924;-46
2022/11/24 13:15:52;;;;;;;;;;;16.90;47.30;;;;;;8327932;28;19991;-45
2022/11/24 13:20:11;;;;;;;;;;;16.90;47.30;;;;;;8331390;28;20000;-44
2022/11/24 13:24:15;;;;;;;;;;;16.80;47.30;;;;;;8331321;28;19925;-45
2022/11/24 13:28:35;;;;;;;;;;;16.90;47.30;;;;;;8331182;28;20365;-45
2022/11/24 13:32:36;;;;;;;;;;;16.90;47.30;;;;;;8331294;28;19921;-46
2022/11/24 13:36:51;;;;;;;;;;;16.90;47.30;;;;;;8330444;28;19976;-45
2022/11/24 13:40:51;;;;;;;;;;;16.90;47.30;;;;;;8331139;28;20298;-45
2022/11/24 13:44:53;;;;;;;;;;;16.90;47.30;;;;;;8330619;28;19921;-44
2022/11/24 13:48:57;;;;;;;;;;;16.90;47.30;;;;;;8330256;28;19913;-47
2022/11/24 13:53:07;;;;;;;;;;;16.80;47.20;;;;;;8330594;28;19917;-46
2022/11/24 13:57:30;;;;;;;;;;;16.90;47.30;;;;;;8307550;28;19917;-46
2022/11/24 14:01:31;;;;;;;;;;;16.90;47.20;;;;;;8311539;28;19968;-45
2022/11/24 14:05:36;;;;;;;;;;;16.90;47.30;;;;;;8308969;28;19923;-45
2022/11/24 14:09:48;;;;;;;;;;;16.90;47.20;;;;;;8315982;28;20408;-49
2022/11/24 14:13:49;;;;;;;;;;;16.90;47.30;;;;;;8302893;28;19917;-47
2022/11/24 14:17:49;;;;;;;;;;;16.90;47.20;;;;;;8300558;28;19956;-44
2022/11/24 14:21:50;;;;;;;;;;;16.90;47.30;;;;;;8311902;28;19917;-45
2022/11/24 14:25:51;;;;;;;;;;;16.90;47.20;;;;;;8303886;28;19921;-43
2022/11/24 14:29:52;;;;;;;;;;;16.90;47.20;;;;;;8301329;28;19936;-46
2022/11/24 14:34:11;;;;;;;;;;;16.90;47.30;;;;;;8301366;28;19924;-47
2022/11/24 14:38:12;;;;;;;;;;;16.90;47.20;;;;;;8309825;28;20488;-44
2022/11/24 14:42:19;;;;;;;;;;;16.90;47.30;;;;;;8316498;28;19929;-44
2022/11/24 14:46:19;;;;;;;;;;;16.90;47.30;;;;;;8307439;28;20341;-42
2022/11/24 14:50:21;;;;;;;;;;;16.90;47.30;;;;;;8299269;28;19929;-44
2022/11/24 14:54:22;;;;;;;;;;;16.90;47.30;;;;;;8310952;28;20403;-45
2022/11/24 14:58:31;;;;;;;;;;;16.90;47.30;;;;;;8304249;28;19925;-45
2022/11/24 15:02:46;;;;;;;;;;;16.90;47.20;;;;;;8311501;28;19917;-45
2022/11/24 15:06:48;;;;;;;;;;;16.90;47.30;;;;;;8320115;28;19917;-42
2022/11/24 15:10:54;;;;;;;;;;;16.90;47.80;;;;;;8301721;28;19929;-47
2022/11/24 15:15:00;;;;;;;;;;;16.90;47.30;;;;;;8305509;28;20021;-47
2022/11/24 15:19:01;;;;;;;;;;;16.90;47.30;;;;;;8309163;28;19929;-47
2022/11/24 15:23:16;;;;;;;;;;;16.80;47.30;;;;;;8308415;28;20370;-44
2022/11/24 15:27:17;;;;;;;;;;;16.90;47.30;;;;;;8305239;28;20292;-42
2022/11/24 15:31:17;;;;;;;;;;;16.90;47.30;;;;;;8312567;28;19940;-47
2022/11/24 15:35:18;;;;;;;;;;;16.90;47.30;;;;;;8300090;28;20333;-46
2022/11/24 15:39:18;;;;;;;;;;;16.90;47.30;;;;;;8312170;28;20370;-46
2022/11/24 15:43:32;;;;;;;;;;;16.80;47.30;;;;;;8323619;28;20294;-44
2022/11/24 15:47:33;;;;;;;;;;;16.90;47.30;;;;;;8307598;28;20024;-45
2022/11/24 15:51:34;;;;;;;;;;;16.90;47.30;;;;;;8318604;28;19924;-48
2022/11/24 15:55:35;;;;;;;;;;;16.90;47.40;;;;;;8308901;28;19996;-48
2022/11/24 15:59:36;;;;;;;;;;;16.90;47.40;;;;;;8311638;28;19932;-48
2022/11/24 16:03:37;;;;;;;;;;;16.90;47.40;;;;;;8306876;28;19995;-47
2022/11/24 16:07:37;;;;;;;;;;;16.90;47.40;;;;;;8302677;28;19921;-49
2022/11/24 16:11:38;;;;;;;;;;;16.90;47.40;;;;;;8333778;28;19992;-48
2022/11/24 16:15:38;;;;;;;;;;;16.80;47.40;;;;;;8324223;28;19965;-46
2022/11/24 16:19:39;;;;;;;;;;;16.80;47.30;;;;;;8326697;28;19932;-47
2022/11/24 16:23:39;;;;;;;;;;;16.80;47.40;;;;;;8309372;28;19925;-45
2022/11/24 16:27:40;;;;;;;;;;;16.80;47.40;;;;;;8320914;28;19917;-48
2022/11/24 16:31:42;;;;;;;;;;;16.80;47.40;;;;;;8303042;28;19921;-46
2022/11/24 16:35:45;;;;;;;;;;;16.80;47.30;;;;;;8303530;28;20011;-46
2022/11/24 16:39:46;;;;;;;;;;;16.90;47.40;;;;;;8301156;28;19933;-48
2022/11/24 16:43:47;;;;;;;;;;;16.80;47.30;;;;;;8314643;28;19921;-48
2022/11/24 16:47:47;;;;;;;;;;;16.80;47.30;;;;;;8321952;28;19987;-46
2022/11/24 16:51:47;;;;;;;;;;;16.80;47.40;;;;;;8322023;28;20357;-49
2022/11/24 16:55:55;;;;;;;;;;;16.80;47.30;;;;;;8314838;28;20366;-49
2022/11/24 16:59:55;;;;;;;;;;;16.80;47.40;;;;;;8306556;28;20378;-48
2022/11/24 17:03:55;;;;;;;;;;;16.80;47.30;;;;;;8321366;28;19936;-45
2022/11/24 17:07:56;;;;;;;;;;;16.80;47.30;;;;;;8306572;28;19927;-48
2022/11/24 17:11:57;;;;;;;;;;;16.80;47.30;;;;;;8319236;28;19917;-47
2022/11/24 17:15:57;;;;;;;;;;;16.80;47.30;;;;;;8310643;28;19917;-48
2022/11/24 17:19:58;;;;;;;;;;;16.80;47.30;;;;;;8310357;28;19979;-49
2022/11/24 17:23:59;;;;;;;;;;;16.80;47.40;;;;;;8314609;28;19917;-47
2022/11/24 17:28:00;;;;;;;;;;;16.80;47.30;;;;;;8331987;28;20008;-44
2022/11/24 17:32:00;;;;;;;;;;;16.80;47.40;;;;;;8307207;28;19917;-47
2022/11/24 17:36:02;;;;;;;;;;;16.80;47.30;;;;;;8319873;28;20396;-44
2022/11/24 17:40:02;;;;;;;;;;;16.80;47.30;;;;;;8312822;28;19929;-45
2022/11/24 17:44:03;;;;;;;;;;;16.80;47.30;;;;;;8306811;28;20379;-45
2022/11/24 17:48:04;;;;;;;;;;;16.80;47.30;;;;;;8320367;28;19921;-44
2022/11/24 17:52:04;;;;;;;;;;;16.80;47.30;;;;;;8309263;28;19940;-46
2022/11/24 17:56:05;;;;;;;;;;;16.80;47.30;;;;;;8309216;28;20020;-44
2022/11/24 18:00:06;;;;;;;;;;;16.80;47.30;;;;;;8316112;28;19932;-49
2022/11/24 18:04:07;;;;;;;;;;;16.80;47.30;;;;;;8306867;28;20433;-46
2022/11/24 18:08:07;;;;;;;;;;;16.80;47.30;;;;;;8308848;28;19922;-45
2022/11/24 18:12:07;;;;;;;;;;;16.80;47.30;;;;;;8308175;28;19918;-45
2022/11/24 18:16:09;;;;;;;;;;;16.80;47.30;;;;;;8303365;28;20429;-46
2022/11/24 18:20:10;;;;;;;;;;;16.80;47.30;;;;;;8308128;28;20633;-48
2022/11/24 18:24:11;;;;;;;;;;;16.80;47.30;;;;;;8317197;28;20330;-45
2022/11/24 18:28:11;;;;;;;;;;;16.80;47.20;;;;;;8309710;28;19917;-45
2022/11/24 18:32:12;;;;;;;;;;;16.80;47.20;;;;;;8300046;28;19964;-46
2022/11/24 18:36:14;;;;;;;;;;;16.80;47.10;;;;;;8322694;28;20523;-45
2022/11/24 18:40:15;;;;;;;;;;;16.80;47.10;;;;;;8298510;28;19940;-46
2022/11/24 18:44:15;;;;;;;;;;;16.80;47.20;;;;;;8302249;28;19976;-45
2022/11/24 18:48:16;;;;;;;;;;;16.80;47.10;;;;;;8315907;28;20397;-44
2022/11/24 18:52:16;;;;;;;;;;;16.80;47.20;;;;;;8312723;28;19924;-44
2022/11/24 18:56:17;;;;;;;;;;;16.80;47.20;;;;;;8310224;28;19929;-45
2022/11/24 19:00:17;;;;;;;;;;;16.80;47.20;;;;;;8322554;28;19932;-45
2022/11/24 19:04:18;;;;;;;;;;;16.80;47.20;;;;;;8308208;28;19917;-43
2022/11/24 19:08:18;;;;;;;;;;;16.80;47.10;;;;;;8315745;28;20011;-43
2022/11/24 19:12:19;;;;;;;;;;;16.80;47.10;;;;;;8312614;28;19917;-45
2022/11/24 19:16:20;;;;;;;;;;;16.80;47.20;;;;;;8334883;28;20085;-44
2022/11/24 19:20:20;;;;;;;;;;;16.80;47.10;;;;;;8335009;28;19928;-45
2022/11/24 19:24:21;;;;;;;;;;;16.80;47.00;;;;;;8335034;28;19917;-45
2022/11/24 19:28:21;;;;;;;;;;;16.80;47.10;;;;;;8334512;28;20374;-45
2022/11/24 19:32:22;;;;;;;;;;;16.80;47.10;;;;;;8334861;28;19940;-44
2022/11/24 19:36:22;;;;;;;;;;;16.80;47.10;;;;;;8334831;28;19952;-45
2022/11/24 19:40:22;;;;;;;;;;;16.80;47.10;;;;;;8334320;28;20012;-44
2022/11/24 19:44:23;;;;;;;;;;;16.80;47.10;;;;;;8334545;28;20405;-45
2022/11/24 19:48:24;;;;;;;;;;;16.80;47.10;;;;;;8334483;28;19920;-45
2022/11/24 19:52:24;;;;;;;;;;;16.70;47.00;;;;;;8333782;28;20010;-45
2022/11/24 19:56:26;;;;;;;;;;;16.70;47.00;;;;;;8334081;28;19975;-45
2022/11/24 20:00:26;;;;;;;;;;;16.70;47.00;;;;;;8333254;28;20365;-44
2022/11/24 20:04:27;;;;;;;;;;;16.70;47.00;;;;;;8334095;28;19917;-45
2022/11/24 20:08:31;;;;;;;;;;;16.70;47.00;;;;;;8333718;28;19921;-45
2022/11/24 20:12:32;;;;;;;;;;;16.80;47.00;;;;;;8332273;28;19917;-45
2022/11/24 20:16:33;;;;;;;;;;;16.70;46.90;;;;;;8333613;28;19972;-44
2022/11/24 20:20:33;;;;;;;;;;;16.70;47.00;;;;;;8333690;28;19924;-45
2022/11/24 20:24:34;;;;;;;;;;;16.70;47.00;;;;;;8332889;28;19924;-45
2022/11/24 20:28:34;;;;;;;;;;;16.70;46.90;;;;;;8333119;28;19917;-44
2022/11/24 20:32:35;;;;;;;;;;;16.70;46.90;;;;;;8333148;28;19917;-44
2022/11/24 20:36:38;;;;;;;;;;;16.70;46.90;;;;;;8331316;28;19925;-45
2022/11/24 20:40:39;;;;;;;;;;;16.70;46.90;;;;;;8332918;28;20298;-45
2022/11/24 20:44:39;;;;;;;;;;;16.70;46.90;;;;;;8332878;28;19924;-44
2022/11/24 20:48:40;;;;;;;;;;;16.70;46.90;;;;;;8332472;28;19921;-44
2022/11/24 20:52:40;;;;;;;;;;;16.70;46.90;;;;;;8332441;28;19917;-46
2022/11/24 20:56:42;;;;;;;;;;;16.70;46.90;;;;;;8332547;28;19917;-45
2022/11/24 21:00:42;;;;;;;;;;;16.70;46.80;;;;;;8331771;28;19925;-45
2022/11/24 21:04:43;;;;;;;;;;;16.70;47.40;;;;;;8332024;28;20007;-45
2022/11/24 21:08:43;;;;;;;;;;;16.70;46.90;;;;;;8331798;28;19925;-45
2022/11/24 21:12:43;;;;;;;;;;;16.70;46.90;;;;;;8330399;28;19988;-45
2022/11/24 21:16:44;;;;;;;;;;;16.70;46.80;;;;;;8332104;28;20349;-46
2022/11/24 21:20:44;;;;;;;;;;;16.70;46.90;;;;;;8331494;28;19925;-44
2022/11/24 21:24:45;;;;;;;;;;;16.70;46.90;;;;;;8330976;28;19932;-45
2022/11/24 21:28:46;;;;;;;;;;;16.70;46.80;;;;;;8331426;28;20054;-45
2022/11/24 21:32:46;;;;;;;;;;;16.70;46.80;;;;;;8331294;28;19917;-44
2022/11/24 21:36:47;;;;;;;;;;;16.60;46.80;;;;;;8331066;28;19922;-45
2022/11/24 21:40:47;;;;;;;;;;;16.70;46.90;;;;;;8331683;28;19925;-45
2022/11/24 21:44:48;;;;;;;;;;;16.70;46.90;;;;;;8330873;28;19917;-45
2022/11/24 21:48:48;;;;;;;;;;;16.60;46.80;;;;;;8330372;28;19917;-45
2022/11/24 21:52:49;;;;;;;;;;;16.60;46.80;;;;;;8330732;28;19963;-45
2022/11/24 21:56:49;;;;;;;;;;;16.60;46.80;;;;;;8330862;28;19913;-44
2022/11/24 22:00:50;;;;;;;;;;;16.70;46.90;;;;;;8329976;28;20381;-44
2022/11/24 22:04:50;;;;;;;;;;;16.70;46.80;;;;;;8330467;28;19918;-44
2022/11/24 22:08:51;;;;;;;;;;;16.70;46.80;;;;;;8330285;28;20362;-44
2022/11/24 22:12:51;;;;;;;;;;;16.70;46.80;;;;;;8329895;28;19924;-44
2022/11/24 22:16:51;;;;;;;;;;;16.70;46.80;;;;;;8330426;28;19913;-45
2022/11/24 22:20:52;;;;;;;;;;;16.70;47.30;;;;;;8329995;28;19925;-44
2022/11/24 22:24:53;;;;;;;;;;;16.70;46.80;;;;;;8337574;28;20358;-45
2022/11/24 22:28:54;;;;;;;;;;;16.70;46.80;;;;;;8341094;28;19921;-44
2022/11/24 22:32:54;;;;;;;;;;;16.70;46.80;;;;;;8341453;28;19917;-44
2022/11/24 22:36:55;;;;;;;;;;;16.70;46.70;;;;;;8340609;28;19927;-45
2022/11/24 22:41:09;;;;;;;;;;;16.60;46.70;;;;;;8340548;28;20374;-44
2022/11/24 22:45:09;;;;;;;;;;;16.60;46.60;;;;;;8340811;28;20564;-46
2022/11/24 22:49:10;;;;;;;;;;;16.60;46.60;;;;;;8340311;28;19956;-43
2022/11/24 22:53:10;;;;;;;;;;;16.60;46.60;;;;;;8340832;28;20278;-44
2022/11/24 22:57:11;;;;;;;;;;;16.60;46.70;;;;;;8340722;28;19913;-44
2022/11/24 23:01:15;;;;;;;;;;;16.60;46.60;;;;;;8343494;28;19925;-43
2022/11/24 23:05:16;;;;;;;;;;;16.60;46.60;;;;;;8340783;28;19963;-44
2022/11/24 23:09:16;;;;;;;;;;;16.60;46.60;;;;;;8340270;28;19921;-44
2022/11/24 23:13:16;;;;;;;;;;;16.60;46.60;;;;;;8340029;28;20385;-44
2022/11/24 23:17:17;;;;;;;;;;;16.60;46.60;;;;;;8340648;28;20384;-44
2022/11/24 23:21:18;;;;;;;;;;;16.60;46.70;;;;;;8340164;28;19932;-44
2022/11/24 23:25:19;;;;;;;;;;;16.60;46.60;;;;;;8339638;28;20005;-43
2022/11/24 23:29:19;;;;;;;;;;;16.60;47.20;;;;;;8340355;28;20289;-45